PWSweather.com
Personal Weather Stations
Station Observations
KWABLAIN13
Ptl Weather, Blaine, WA

Ptl WeatherBlaine, WA

Lat: 48.997393, Lon: -122.748614

Elevation: 57

Station Type: Davis Advantage Pro 2

http://www.ptlnet.net

Latest ConditionsUpdated 9:55:36 PM PDT Tuesday, Apr 23, 2019
Currently Today's Max Today's Min Today's Average
Temperature 50.0°F10.0°C 61.4°F16.3°C 49.3°F9.6°C 54.0°F12.2°C
Dew Point 45.7°F7.6°C 52.7°F11.5°C 45.5°F7.5°C 48.7°F9.3°C
Winds 3.0 mph SE4.8 kmh SE 9.0 mph -14.5 kmh - - 3.2 mph 5.1 kmh
Wind Gusts 6.0 mph9.7 kmh 12.0 mph19.3 kmh - -
Humidity 85% 97% 64% 83%
Pressure 30.18 in1022.0 mb 30.18 in1022.0 mb 30.11 in1019.6 mb -
Hour Temp Dew Point Humidity Winds Wind Gusts Pressure Precip Precip Rate Daily Precip Total
09:55 PM 50.0°F10.0°C 45.7°F7.6°C 85% 3.0 mph SE4.8 kmh SE 6.0 mph9.7 kmh 30.18 in1022.0 mb 0.00 in0.0 mm 0.00 in0.0 mm 0.03 in0.8 mm
09:45 PM 50.2°F10.1°C 45.6°F7.6°C 84% 5.0 mph SE8.0 kmh SE 5.0 mph8.0 kmh 30.18 in1022.0 mb 0.00 in0.0 mm 0.00 in0.0 mm 0.03 in0.8 mm
09:35 PM 50.5°F10.3°C 45.5°F7.5°C 83% 4.0 mph SSE6.4 kmh SSE 5.0 mph8.0 kmh 30.18 in1022.0 mb 0.00 in0.0 mm 0.00 in0.0 mm 0.03 in0.8 mm
09:25 PM 50.9°F10.5°C 45.6°F7.6°C 82% 2.0 mph SW3.2 kmh SW 3.0 mph4.8 kmh 30.17 in1021.7 mb 0.00 in0.0 mm 0.00 in0.0 mm 0.03 in0.8 mm
09:15 PM 51.4°F10.8°C 45.8°F7.7°C 81% Calm Calm -- 30.17 in1021.7 mb 0.00 in0.0 mm 0.00 in0.0 mm 0.03 in0.8 mm
09:05 PM 51.9°F11.1°C 46.3°F7.9°C 81% Calm Calm 1.0 mph1.6 kmh 30.17 in1021.7 mb 0.00 in0.0 mm 0.00 in0.0 mm 0.03 in0.8 mm
08:55 PM 52.3°F11.3°C 46.3°F7.9°C 80% 2.0 mph SW3.2 kmh SW 5.0 mph8.0 kmh 30.17 in1021.7 mb 0.00 in0.0 mm 0.00 in0.0 mm 0.03 in0.8 mm
08:45 PM 52.7°F11.5°C 46.4°F8.0°C 79% 3.0 mph SW4.8 kmh SW 4.0 mph6.4 kmh 30.16 in1021.3 mb 0.00 in0.0 mm 0.00 in0.0 mm 0.03 in0.8 mm
08:35 PM 53.3°F11.8°C 46.3°F7.9°C 77% 3.0 mph SW4.8 kmh SW 3.0 mph4.8 kmh 30.16 in1021.3 mb 0.00 in0.0 mm 0.00 in0.0 mm 0.03 in0.8 mm
08:25 PM 53.6°F12.0°C 46.2°F7.9°C 76% 2.0 mph SW3.2 kmh SW 4.0 mph6.4 kmh 30.15 in1021.0 mb 0.00 in0.0 mm 0.00 in0.0 mm 0.03 in0.8 mm
08:15 PM 54.1°F12.3°C 46.4°F8.0°C 75% 4.0 mph SW6.4 kmh SW 4.0 mph6.4 kmh 30.15 in1021.0 mb 0.00 in0.0 mm 0.00 in0.0 mm 0.03 in0.8 mm
08:05 PM 54.5°F12.5°C 47.1°F8.4°C 76% 3.0 mph SW4.8 kmh SW 5.0 mph8.0 kmh 30.15 in1021.0 mb 0.00 in0.0 mm 0.00 in0.0 mm 0.03 in0.8 mm
07:55 PM 54.8°F12.7°C 46.3°F7.9°C 73% 3.0 mph SSW4.8 kmh SSW 5.0 mph8.0 kmh 30.15 in1021.0 mb 0.00 in0.0 mm 0.00 in0.0 mm 0.03 in0.8 mm
07:45 PM 55.1°F12.8°C 46.3°F7.9°C 72% 2.0 mph SW3.2 kmh SW 5.0 mph8.0 kmh 30.15 in1021.0 mb 0.00 in0.0 mm 0.00 in0.0 mm 0.03 in0.8 mm
07:35 PM 55.3°F12.9°C 46.4°F8.0°C 72% 4.0 mph W6.4 kmh W 5.0 mph8.0 kmh 30.15 in1021.0 mb 0.00 in0.0 mm 0.00 in0.0 mm 0.03 in0.8 mm
07:25 PM 55.5°F13.1°C 46.3°F7.9°C 71% 2.0 mph SW3.2 kmh SW 7.0 mph11.3 kmh 30.15 in1021.0 mb 0.00 in0.0 mm 0.00 in0.0 mm 0.03 in0.8 mm
07:15 PM 55.8°F13.2°C 46.6°F8.1°C 71% 6.0 mph SW9.7 kmh SW 7.0 mph11.3 kmh 30.15 in1021.0 mb 0.00 in0.0 mm 0.00 in0.0 mm 0.03 in0.8 mm
07:05 PM 56.3°F13.5°C 46.3°F7.9°C 69% 4.0 mph SW6.4 kmh SW 7.0 mph11.3 kmh 30.15 in1021.0 mb 0.00 in0.0 mm 0.00 in0.0 mm 0.03 in0.8 mm
06:55 PM 57.1°F13.9°C 46.7°F8.2°C 68% 4.0 mph SSW6.4 kmh SSW 7.0 mph11.3 kmh 30.15 in1021.0 mb 0.00 in0.0 mm 0.00 in0.0 mm 0.03 in0.8 mm
06:45 PM 57.8°F14.3°C 46.9°F8.3°C 67% 4.0 mph SW6.4 kmh SW 7.0 mph11.3 kmh 30.15 in1021.0 mb 0.00 in0.0 mm 0.00 in0.0 mm 0.03 in0.8 mm
06:35 PM 58.9°F14.9°C 47.6°F8.7°C 66% 5.0 mph SW8.0 kmh SW 7.0 mph11.3 kmh 30.15 in1021.0 mb 0.00 in0.0 mm 0.00 in0.0 mm 0.03 in0.8 mm
06:25 PM 60.2°F15.7°C 48.0°F8.9°C 64% 5.0 mph SW8.0 kmh SW 7.0 mph11.3 kmh 30.15 in1021.0 mb 0.00 in0.0 mm 0.00 in0.0 mm 0.03 in0.8 mm
06:15 PM 60.7°F15.9°C 49.3°F9.6°C 66% 4.0 mph W6.4 kmh W 6.0 mph9.7 kmh 30.15 in1021.0 mb 0.00 in0.0 mm 0.00 in0.0 mm 0.03 in0.8 mm
06:05 PM 60.5°F15.8°C 49.1°F9.5°C 66% 3.0 mph SW4.8 kmh SW 5.0 mph8.0 kmh 30.15 in1021.0 mb 0.00 in0.0 mm 0.00 in0.0 mm 0.03 in0.8 mm
05:55 PM 60.7°F15.9°C 49.3°F9.6°C 66% 4.0 mph W6.4 kmh W 6.0 mph9.7 kmh 30.15 in1021.0 mb 0.00 in0.0 mm 0.00 in0.0 mm 0.03 in0.8 mm
05:45 PM 60.7°F15.9°C 49.3°F9.6°C 66% 3.0 mph WSW4.8 kmh WSW 6.0 mph9.7 kmh 30.15 in1021.0 mb 0.00 in0.0 mm 0.00 in0.0 mm 0.03 in0.8 mm
05:35 PM 60.6°F15.9°C 50.0°F10.0°C 68% 2.0 mph W3.2 kmh W 6.0 mph9.7 kmh 30.15 in1021.0 mb 0.00 in0.0 mm 0.00 in0.0 mm 0.03 in0.8 mm
05:25 PM 60.4°F15.8°C 50.2°F10.1°C 69% 5.0 mph WNW8.0 kmh WNW 7.0 mph11.3 kmh 30.16 in1021.3 mb 0.00 in0.0 mm 0.00 in0.0 mm 0.03 in0.8 mm
05:15 PM 60.3°F15.7°C 49.3°F9.6°C 67% 4.0 mph SW6.4 kmh SW 9.0 mph14.5 kmh 30.15 in1021.0 mb 0.00 in0.0 mm 0.00 in0.0 mm 0.03 in0.8 mm
05:05 PM 60.4°F15.8°C 50.2°F10.1°C 69% 5.0 mph W8.0 kmh W 10.0 mph16.1 kmh 30.16 in1021.3 mb 0.00 in0.0 mm 0.00 in0.0 mm 0.03 in0.8 mm
04:55 PM 60.5°F15.8°C 51.1°F10.6°C 71% 6.0 mph W9.7 kmh W 8.0 mph12.9 kmh 30.16 in1021.3 mb 0.00 in0.0 mm 0.00 in0.0 mm 0.03 in0.8 mm
04:45 PM 60.0°F15.6°C 52.4°F11.3°C 76% 4.0 mph SW6.4 kmh SW 8.0 mph12.9 kmh 30.16 in1021.3 mb 0.00 in0.0 mm 0.00 in0.0 mm 0.03 in0.8 mm
04:35 PM 59.8°F15.4°C 51.1°F10.6°C 73% 3.0 mph WSW4.8 kmh WSW 7.0 mph11.3 kmh 30.16 in1021.3 mb 0.00 in0.0 mm 0.00 in0.0 mm 0.03 in0.8 mm
04:25 PM 59.5°F15.3°C 51.6°F10.9°C 75% 7.0 mph SW11.3 kmh SW 10.0 mph16.1 kmh 30.16 in1021.3 mb 0.00 in0.0 mm 0.00 in0.0 mm 0.03 in0.8 mm
04:15 PM 59.8°F15.4°C 51.5°F10.8°C 74% 6.0 mph SSW9.7 kmh SSW 10.0 mph16.1 kmh 30.16 in1021.3 mb 0.00 in0.0 mm 0.00 in0.0 mm 0.03 in0.8 mm
04:05 PM 59.5°F15.3°C 51.9°F11.1°C 76% 9.0 mph WSW14.5 kmh WSW 9.0 mph14.5 kmh 30.16 in1021.3 mb 0.00 in0.0 mm 0.00 in0.0 mm 0.03 in0.8 mm
03:55 PM 59.3°F15.2°C 51.8°F11.0°C 76% 5.0 mph SW8.0 kmh SW 9.0 mph14.5 kmh 30.16 in1021.3 mb 0.00 in0.0 mm 0.00 in0.0 mm 0.03 in0.8 mm
03:45 PM 59.2°F15.1°C 52.0°F11.1°C 77% 8.0 mph SW12.9 kmh SW 9.0 mph14.5 kmh 30.17 in1021.7 mb 0.00 in0.0 mm 0.00 in0.0 mm 0.03 in0.8 mm
03:35 PM 59.9°F15.5°C 52.7°F11.5°C 77% 7.0 mph W11.3 kmh W 11.0 mph17.7 kmh 30.17 in1021.7 mb 0.00 in0.0 mm 0.00 in0.0 mm 0.03 in0.8 mm
03:25 PM 60.4°F15.8°C 52.1°F11.2°C 74% 3.0 mph WSW4.8 kmh WSW 9.0 mph14.5 kmh 30.17 in1021.7 mb 0.00 in0.0 mm 0.00 in0.0 mm 0.03 in0.8 mm
03:15 PM 61.0°F16.1°C 50.4°F10.2°C 68% 7.0 mph WSW11.3 kmh WSW 10.0 mph16.1 kmh 30.17 in1021.7 mb 0.00 in0.0 mm 0.00 in0.0 mm 0.03 in0.8 mm
03:05 PM 61.1°F16.2°C 50.9°F10.5°C 69% 6.0 mph SW9.7 kmh SW 9.0 mph14.5 kmh 30.17 in1021.7 mb 0.00 in0.0 mm 0.00 in0.0 mm 0.03 in0.8 mm
02:55 PM 61.4°F16.3°C 50.4°F10.2°C 67% 7.0 mph WSW11.3 kmh WSW 9.0 mph14.5 kmh 30.17 in1021.7 mb 0.00 in0.0 mm 0.00 in0.0 mm 0.03 in0.8 mm
02:45 PM 61.2°F16.2°C 51.0°F10.6°C 69% 5.0 mph W8.0 kmh W 8.0 mph12.9 kmh 30.18 in1022.0 mb 0.00 in0.0 mm 0.00 in0.0 mm 0.03 in0.8 mm
02:35 PM 60.8°F16.0°C 49.8°F9.9°C 67% 6.0 mph W9.7 kmh W 8.0 mph12.9 kmh 30.17 in1021.7 mb 0.00 in0.0 mm 0.00 in0.0 mm 0.03 in0.8 mm
02:25 PM 60.6°F15.9°C 49.6°F9.8°C 67% 5.0 mph SW8.0 kmh SW 9.0 mph14.5 kmh 30.17 in1021.7 mb 0.00 in0.0 mm 0.00 in0.0 mm 0.03 in0.8 mm
02:15 PM 60.6°F15.9°C 49.2°F9.6°C 66% 4.0 mph WNW6.4 kmh WNW 8.0 mph12.9 kmh 30.17 in1021.7 mb 0.00 in0.0 mm 0.00 in0.0 mm 0.03 in0.8 mm
02:05 PM 60.9°F16.1°C 50.3°F10.2°C 68% 3.0 mph W4.8 kmh W 7.0 mph11.3 kmh 30.17 in1021.7 mb 0.00 in0.0 mm 0.00 in0.0 mm 0.03 in0.8 mm
01:55 PM 60.9°F16.1°C 50.3°F10.2°C 68% 5.0 mph W8.0 kmh W 7.0 mph11.3 kmh 30.17 in1021.7 mb 0.00 in0.0 mm 0.00 in0.0 mm 0.03 in0.8 mm
01:45 PM 60.6°F15.9°C 50.0°F10.0°C 68% 3.0 mph W4.8 kmh W 7.0 mph11.3 kmh 30.17 in1021.7 mb 0.00 in0.0 mm 0.00 in0.0 mm 0.03 in0.8 mm
01:35 PM 59.9°F15.5°C 48.9°F9.4°C 67% 4.0 mph SW6.4 kmh SW 9.0 mph14.5 kmh 30.17 in1021.7 mb 0.00 in0.0 mm 0.00 in0.0 mm 0.03 in0.8 mm
01:25 PM 59.6°F15.3°C 48.6°F9.2°C 67% 6.0 mph SW9.7 kmh SW 9.0 mph14.5 kmh 30.17 in1021.7 mb 0.00 in0.0 mm 0.00 in0.0 mm 0.03 in0.8 mm
01:15 PM 59.1°F15.1°C 48.6°F9.2°C 68% 6.0 mph SW9.7 kmh SW 10.0 mph16.1 kmh 30.17 in1021.7 mb 0.00 in0.0 mm 0.00 in0.0 mm 0.03 in0.8 mm
01:05 PM 58.9°F14.9°C 49.2°F9.6°C 70% 5.0 mph WSW8.0 kmh WSW 8.0 mph12.9 kmh 30.17 in1021.7 mb 0.00 in0.0 mm 0.00 in0.0 mm 0.03 in0.8 mm
12:55 PM 57.7°F14.3°C 48.4°F9.1°C 71% 4.0 mph SW6.4 kmh SW 9.0 mph14.5 kmh 30.17 in1021.7 mb 0.00 in0.0 mm 0.00 in0.0 mm 0.03 in0.8 mm
12:45 PM 56.7°F13.7°C 48.5°F9.2°C 74% 5.0 mph SW8.0 kmh SW 9.0 mph14.5 kmh 30.17 in1021.7 mb 0.00 in0.0 mm 0.00 in0.0 mm 0.03 in0.8 mm
12:35 PM 57.0°F13.9°C 47.3°F8.5°C 70% 9.0 mph WSW14.5 kmh WSW 9.0 mph14.5 kmh 30.17 in1021.7 mb 0.00 in0.0 mm 0.00 in0.0 mm 0.03 in0.8 mm
12:25 PM 57.9°F14.4°C 48.6°F9.2°C 71% 8.0 mph SW12.9 kmh SW 8.0 mph12.9 kmh 30.17 in1021.7 mb 0.00 in0.0 mm 0.00 in0.0 mm 0.03 in0.8 mm
12:15 PM 58.2°F14.6°C 50.3°F10.2°C 75% 6.0 mph SW9.7 kmh SW 8.0 mph12.9 kmh 30.17 in1021.7 mb 0.00 in0.0 mm 0.00 in0.0 mm 0.03 in0.8 mm
12:05 PM 57.8°F14.3°C 49.6°F9.8°C 74% 5.0 mph SW8.0 kmh SW 8.0 mph12.9 kmh 30.17 in1021.7 mb 0.00 in0.0 mm 0.00 in0.0 mm 0.03 in0.8 mm
11:55 AM 56.9°F13.8°C 50.1°F10.1°C 78% 7.0 mph S11.3 kmh S 8.0 mph12.9 kmh 30.17 in1021.7 mb 0.00 in0.0 mm 0.00 in0.0 mm 0.03 in0.8 mm
11:45 AM 56.0°F13.3°C 49.9°F9.9°C 80% 4.0 mph S6.4 kmh S 9.0 mph14.5 kmh 30.17 in1021.7 mb 0.00 in0.0 mm 0.00 in0.0 mm 0.03 in0.8 mm
11:35 AM 55.3°F12.9°C 48.6°F9.2°C 78% 4.0 mph SSW6.4 kmh SSW 7.0 mph11.3 kmh 30.17 in1021.7 mb 0.00 in0.0 mm 0.00 in0.0 mm 0.03 in0.8 mm
11:25 AM 55.3°F12.9°C 48.6°F9.2°C 78% 4.0 mph SW6.4 kmh SW 7.0 mph11.3 kmh 30.17 in1021.7 mb 0.00 in0.0 mm 0.00 in0.0 mm 0.03 in0.8 mm
11:15 AM 55.3°F12.9°C 48.9°F9.4°C 79% 4.0 mph SW6.4 kmh SW 8.0 mph12.9 kmh 30.17 in1021.7 mb 0.00 in0.0 mm 0.00 in0.0 mm 0.03 in0.8 mm
11:05 AM 55.1°F12.8°C 49.1°F9.5°C 80% 4.0 mph S6.4 kmh S 10.0 mph16.1 kmh 30.17 in1021.7 mb 0.00 in0.0 mm 0.00 in0.0 mm 0.03 in0.8 mm
10:55 AM 54.9°F12.7°C 49.2°F9.6°C 81% 9.0 mph SSW14.5 kmh SSW 10.0 mph16.1 kmh 30.16 in1021.3 mb 0.00 in0.0 mm 0.00 in0.0 mm 0.03 in0.8 mm
10:45 AM 54.8°F12.7°C 49.1°F9.5°C 81% 8.0 mph SW12.9 kmh SW 11.0 mph17.7 kmh 30.16 in1021.3 mb 0.00 in0.0 mm 0.00 in0.0 mm 0.03 in0.8 mm
10:35 AM 54.6°F12.6°C 49.6°F9.8°C 83% 7.0 mph SW11.3 kmh SW 9.0 mph14.5 kmh 30.16 in1021.3 mb 0.00 in0.0 mm 0.00 in0.0 mm 0.03 in0.8 mm
10:25 AM 54.2°F12.3°C 49.8°F9.9°C 85% 7.0 mph SSW11.3 kmh SSW 9.0 mph14.5 kmh 30.15 in1021.0 mb 0.00 in0.0 mm 0.00 in0.0 mm 0.03 in0.8 mm
10:15 AM 53.8°F12.1°C 49.7°F9.8°C 86% 7.0 mph SSW11.3 kmh SSW 12.0 mph19.3 kmh 30.15 in1021.0 mb 0.00 in0.0 mm 0.00 in0.0 mm 0.03 in0.8 mm
10:05 AM 53.3°F11.8°C 50.2°F10.1°C 89% 4.0 mph S6.4 kmh S 7.0 mph11.3 kmh 30.15 in1021.0 mb 0.00 in0.0 mm 0.00 in0.0 mm 0.03 in0.8 mm
09:55 AM 52.8°F11.6°C 49.7°F9.8°C 89% 6.0 mph SSW9.7 kmh SSW 8.0 mph12.9 kmh 30.16 in1021.3 mb 0.00 in0.0 mm 0.00 in0.0 mm 0.03 in0.8 mm
09:45 AM 52.3°F11.3°C 49.5°F9.7°C 90% Calm Calm -- 30.15 in1021.0 mb 0.00 in0.0 mm 0.00 in0.0 mm 0.03 in0.8 mm
09:35 AM 52.0°F11.1°C 49.2°F9.6°C 90% Calm Calm -- 30.15 in1021.0 mb 0.00 in0.0 mm 0.00 in0.0 mm 0.03 in0.8 mm
09:25 AM 51.9°F11.1°C 49.1°F9.5°C 90% Calm Calm -- 30.15 in1021.0 mb 0.00 in0.0 mm 0.00 in0.0 mm 0.03 in0.8 mm
09:15 AM 52.0°F11.1°C 49.5°F9.7°C 91% Calm Calm -- 30.14 in1020.7 mb 0.00 in0.0 mm 0.00 in0.0 mm 0.03 in0.8 mm
09:05 AM 51.8°F11.0°C 49.3°F9.6°C 91% Calm Calm -- 30.14 in1020.7 mb 0.00 in0.0 mm 0.00 in0.0 mm 0.03 in0.8 mm
08:55 AM 51.6°F10.9°C 49.1°F9.5°C 91% Calm Calm -- 30.15 in1021.0 mb 0.00 in0.0 mm 0.00 in0.0 mm 0.03 in0.8 mm
08:45 AM 51.5°F10.8°C 49.3°F9.6°C 92% Calm Calm -- 30.14 in1020.7 mb 0.00 in0.0 mm 0.00 in0.0 mm 0.03 in0.8 mm
08:35 AM 51.5°F10.8°C 49.0°F9.4°C 91% Calm Calm -- 30.14 in1020.7 mb 0.00 in0.0 mm 0.00 in0.0 mm 0.03 in0.8 mm
08:25 AM 51.4°F10.8°C 49.5°F9.7°C 93% Calm Calm 6.0 mph9.7 kmh 30.15 in1021.0 mb 0.00 in0.0 mm 0.00 in0.0 mm 0.03 in0.8 mm
08:15 AM 50.7°F10.4°C 49.0°F9.4°C 94% 9.0 mph S14.5 kmh S 11.0 mph17.7 kmh 30.15 in1021.0 mb 0.00 in0.0 mm 0.00 in0.0 mm 0.03 in0.8 mm
08:05 AM 50.3°F10.2°C 48.6°F9.2°C 94% 1.0 mph SE1.6 kmh SE 8.0 mph12.9 kmh 30.15 in1021.0 mb 0.00 in0.0 mm 0.00 in0.0 mm 0.03 in0.8 mm
07:55 AM 50.1°F10.1°C 48.4°F9.1°C 94% 1.0 mph S1.6 kmh S 8.0 mph12.9 kmh 30.15 in1021.0 mb 0.00 in0.0 mm 0.00 in0.0 mm 0.03 in0.8 mm
07:45 AM 49.9°F9.9°C 48.5°F9.2°C 95% 5.0 mph S8.0 kmh S 7.0 mph11.3 kmh 30.15 in1021.0 mb 0.00 in0.0 mm 0.00 in0.0 mm 0.03 in0.8 mm
07:35 AM 49.6°F9.8°C 48.2°F9.0°C 95% 4.0 mph S6.4 kmh S 8.0 mph12.9 kmh 30.14 in1020.7 mb 0.00 in0.0 mm 0.00 in0.0 mm 0.03 in0.8 mm
07:25 AM 49.5°F9.7°C 48.1°F8.9°C 95% 4.0 mph S6.4 kmh S 7.0 mph11.3 kmh 30.14 in1020.7 mb 0.00 in0.0 mm 0.00 in0.0 mm 0.03 in0.8 mm
07:15 AM 49.5°F9.7°C 48.4°F9.1°C 96% 4.0 mph SW6.4 kmh SW 6.0 mph9.7 kmh 30.13 in1020.3 mb 0.00 in0.0 mm 0.00 in0.0 mm 0.03 in0.8 mm
07:05 AM 49.4°F9.7°C 48.3°F9.1°C 96% 1.0 mph SE1.6 kmh SE 2.0 mph3.2 kmh 30.14 in1020.7 mb 0.00 in0.0 mm 0.00 in0.0 mm 0.03 in0.8 mm
06:55 AM 49.4°F9.7°C 48.3°F9.1°C 96% 1.0 mph SE1.6 kmh SE 3.0 mph4.8 kmh 30.14 in1020.7 mb 0.00 in0.0 mm 0.00 in0.0 mm 0.03 in0.8 mm
06:45 AM 49.3°F9.6°C 48.2°F9.0°C 96% 3.0 mph SE4.8 kmh SE 4.0 mph6.4 kmh 30.13 in1020.3 mb 0.00 in0.0 mm 0.00 in0.0 mm 0.03 in0.8 mm
06:35 AM 49.4°F9.7°C 48.3°F9.1°C 96% Calm Calm 3.0 mph4.8 kmh 30.13 in1020.3 mb 0.00 in0.0 mm 0.00 in0.0 mm 0.03 in0.8 mm
06:25 AM 49.3°F9.6°C 48.2°F9.0°C 96% 3.0 mph SE4.8 kmh SE 4.0 mph6.4 kmh 30.13 in1020.3 mb 0.00 in0.0 mm 0.00 in0.0 mm 0.03 in0.8 mm
06:15 AM 49.4°F9.7°C 48.3°F9.1°C 96% 3.0 mph SE4.8 kmh SE 6.0 mph9.7 kmh 30.11 in1019.6 mb 0.00 in0.0 mm 0.00 in0.0 mm 0.03 in0.8 mm
06:05 AM 49.4°F9.7°C 48.3°F9.1°C 96% 2.0 mph SE3.2 kmh SE 5.0 mph8.0 kmh 30.12 in1020.0 mb 0.00 in0.0 mm 0.00 in0.0 mm 0.03 in0.8 mm
05:55 AM 49.4°F9.7°C 48.3°F9.1°C 96% 4.0 mph SE6.4 kmh SE 6.0 mph9.7 kmh 30.12 in1020.0 mb 0.00 in0.0 mm 0.00 in0.0 mm 0.03 in0.8 mm
05:45 AM 49.5°F9.7°C 48.4°F9.1°C 96% 6.0 mph SE9.7 kmh SE 7.0 mph11.3 kmh 30.12 in1020.0 mb 0.00 in0.0 mm 0.00 in0.0 mm 0.03 in0.8 mm
05:35 AM 49.4°F9.7°C 48.3°F9.1°C 96% 3.0 mph SSE4.8 kmh SSE 6.0 mph9.7 kmh 30.13 in1020.3 mb 0.00 in0.0 mm 0.00 in0.0 mm 0.03 in0.8 mm
05:25 AM 49.4°F9.7°C 48.3°F9.1°C 96% 4.0 mph SE6.4 kmh SE 5.0 mph8.0 kmh 30.14 in1020.7 mb 0.00 in0.0 mm 0.00 in0.0 mm 0.03 in0.8 mm
05:15 AM 49.4°F9.7°C 48.3°F9.1°C 96% 1.0 mph SE1.6 kmh SE 5.0 mph8.0 kmh 30.13 in1020.3 mb 0.00 in0.0 mm 0.00 in0.0 mm 0.03 in0.8 mm
05:05 AM 49.5°F9.7°C 48.4°F9.1°C 96% 1.0 mph SE1.6 kmh SE 5.0 mph8.0 kmh 30.14 in1020.7 mb 0.00 in0.0 mm 0.00 in0.0 mm 0.03 in0.8 mm
04:55 AM 49.4°F9.7°C 48.3°F9.1°C 96% 1.0 mph SE1.6 kmh SE 5.0 mph8.0 kmh 30.14 in1020.7 mb 0.00 in0.0 mm 0.00 in0.0 mm 0.03 in0.8 mm
04:45 AM 49.5°F9.7°C 48.7°F9.3°C 97% 1.0 mph SE1.6 kmh SE 4.0 mph6.4 kmh 30.14 in1020.7 mb 0.00 in0.0 mm 0.00 in0.0 mm 0.03 in0.8 mm
04:35 AM 49.4°F9.7°C 48.6°F9.2°C 97% 1.0 mph SSE1.6 kmh SSE 6.0 mph9.7 kmh 30.14 in1020.7 mb 0.00 in0.0 mm 0.00 in0.0 mm 0.03 in0.8 mm
04:25 AM 49.4°F9.7°C 48.6°F9.2°C 97% 3.0 mph S4.8 kmh S 6.0 mph9.7 kmh 30.14 in1020.7 mb 0.00 in0.0 mm 0.00 in0.0 mm 0.03 in0.8 mm
04:15 AM 49.4°F9.7°C 48.3°F9.1°C 96% 2.0 mph SSW3.2 kmh SSW 8.0 mph12.9 kmh 30.14 in1020.7 mb 0.00 in0.0 mm 0.00 in0.0 mm 0.03 in0.8 mm
04:05 AM 49.4°F9.7°C 48.3°F9.1°C 96% 2.0 mph SSE3.2 kmh SSE 5.0 mph8.0 kmh 30.14 in1020.7 mb 0.01 in0.3 mm 0.00 in0.0 mm 0.03 in0.8 mm
03:55 AM 49.3°F9.6°C 48.2°F9.0°C 96% 2.0 mph SSE3.2 kmh SSE 5.0 mph8.0 kmh 30.14 in1020.7 mb 0.01 in0.3 mm 0.00 in0.0 mm 0.03 in0.8 mm
03:45 AM 49.3°F9.6°C 48.2°F9.0°C 96% 2.0 mph SSE3.2 kmh SSE 5.0 mph8.0 kmh 30.14 in1020.7 mb 0.01 in0.3 mm 0.00 in0.0 mm 0.03 in0.8 mm
03:35 AM 49.3°F9.6°C 48.2°F9.0°C 96% Calm Calm 2.0 mph3.2 kmh 30.15 in1021.0 mb 0.01 in0.3 mm 0.00 in0.0 mm 0.03 in0.8 mm
03:25 AM 49.3°F9.6°C 48.2°F9.0°C 96% 2.0 mph SE3.2 kmh SE 3.0 mph4.8 kmh 30.14 in1020.7 mb 0.01 in0.3 mm 0.00 in0.0 mm 0.03 in0.8 mm
03:15 AM 49.4°F9.7°C 48.3°F9.1°C 96% 1.0 mph SE1.6 kmh SE 2.0 mph3.2 kmh 30.15 in1021.0 mb 0.01 in0.3 mm 0.00 in0.0 mm 0.03 in0.8 mm
03:05 AM 49.4°F9.7°C 48.3°F9.1°C 96% 2.0 mph SE3.2 kmh SE 4.0 mph6.4 kmh 30.15 in1021.0 mb 0.01 in0.3 mm 0.01 in0.3 mm 0.03 in0.8 mm
02:55 AM 49.5°F9.7°C 48.4°F9.1°C 96% 1.0 mph ENE1.6 kmh ENE 3.0 mph4.8 kmh 30.15 in1021.0 mb 0.00 in0.0 mm 0.00 in0.0 mm 0.02 in0.5 mm
02:45 AM 49.5°F9.7°C 48.7°F9.3°C 97% Calm Calm -- 30.15 in1021.0 mb 0.00 in0.0 mm 0.00 in0.0 mm 0.02 in0.5 mm
02:35 AM 49.5°F9.7°C 48.7°F9.3°C 97% Calm Calm -- 30.15 in1021.0 mb 0.00 in0.0 mm 0.00 in0.0 mm 0.02 in0.5 mm
02:25 AM 49.5°F9.7°C 48.7°F9.3°C 97% Calm Calm -- 30.15 in1021.0 mb 0.01 in0.3 mm 0.00 in0.0 mm 0.02 in0.5 mm
02:15 AM 49.4°F9.7°C 48.3°F9.1°C 96% Calm Calm -- 30.16 in1021.3 mb 0.01 in0.3 mm 0.00 in0.0 mm 0.02 in0.5 mm
02:05 AM 49.4°F9.7°C 48.3°F9.1°C 96% Calm Calm -- 30.16 in1021.3 mb 0.01 in0.3 mm 0.00 in0.0 mm 0.02 in0.5 mm
01:55 AM 49.3°F9.6°C 48.2°F9.0°C 96% Calm Calm -- 30.16 in1021.3 mb 0.01 in0.3 mm 0.00 in0.0 mm 0.02 in0.5 mm
01:45 AM 49.4°F9.7°C 48.3°F9.1°C 96% Calm Calm 2.0 mph3.2 kmh 30.17 in1021.7 mb 0.02 in0.5 mm 0.00 in0.0 mm 0.02 in0.5 mm
01:35 AM 49.4°F9.7°C 48.3°F9.1°C 96% Calm Calm 1.0 mph1.6 kmh 30.17 in1021.7 mb 0.02 in0.5 mm 0.00 in0.0 mm 0.02 in0.5 mm
01:25 AM 49.3°F9.6°C 48.2°F9.0°C 96% Calm Calm 2.0 mph3.2 kmh 30.16 in1021.3 mb 0.02 in0.5 mm 0.00 in0.0 mm 0.02 in0.5 mm
01:15 AM 49.3°F9.6°C 47.9°F8.8°C 95% Calm Calm 1.0 mph1.6 kmh 30.17 in1021.7 mb 0.02 in0.5 mm 0.06 in1.5 mm 0.02 in0.5 mm
01:05 AM 49.6°F9.8°C 48.2°F9.0°C 95% Calm Calm 1.0 mph1.6 kmh 30.16 in1021.3 mb 0.01 in0.3 mm 0.00 in0.0 mm 0.01 in0.3 mm
12:55 AM 49.9°F9.9°C 48.5°F9.2°C 95% 2.0 mph NE3.2 kmh NE 3.0 mph4.8 kmh 30.16 in1021.3 mb 0.01 in0.3 mm 0.00 in0.0 mm 0.01 in0.3 mm
12:45 AM 50.1°F10.1°C 48.7°F9.3°C 95% Calm Calm -- 30.16 in1021.3 mb 0.01 in0.3 mm 0.06 in1.5 mm 0.01 in0.3 mm
12:35 AM 50.2°F10.1°C 48.8°F9.3°C 95% Calm Calm -- 30.16 in1021.3 mb 0.00 in0.0 mm 0.00 in0.0 mm 0.00 in0.0 mm
12:25 AM 50.1°F10.1°C 48.7°F9.3°C 95% Calm Calm -- 30.16 in1021.3 mb 0.00 in0.0 mm 0.00 in0.0 mm 0.00 in0.0 mm
12:15 AM 50.3°F10.2°C 48.9°F9.4°C 95% Calm Calm -- 30.16 in1021.3 mb 0.00 in0.0 mm 0.00 in0.0 mm 0.00 in0.0 mm
12:05 AM 50.4°F10.2°C 48.7°F9.3°C 94% Calm Calm -- 30.16 in1021.3 mb 0.00 in0.0 mm 0.00 in0.0 mm 0.00 in0.0 mm